sensor_id;sensor_type;location;lat;lon;timestamp;pressure;altitude;pressure_sealevel;temperature;humidity
65546;BME280;52177;55.968;37.498;2023-08-17T00:00:16;100472.78;;;16.63;76.29
65546;BME280;52177;55.968;37.498;2023-08-17T00:00:48;100470.50;;;16.60;76.38
65546;BME280;52177;55.968;37.498;2023-08-17T00:01:19;100472.56;;;16.58;76.36
65546;BME280;52177;55.968;37.498;2023-08-17T00:01:49;100470.25;;;16.55;76.56
65546;BME280;52177;55.968;37.498;2023-08-17T00:02:20;100470.44;;;16.54;76.46
65546;BME280;52177;55.968;37.498;2023-08-17T00:02:50;100467.13;;;16.52;76.47
65546;BME280;52177;55.968;37.498;2023-08-17T00:03:20;100470.84;;;16.51;76.72
65546;BME280;52177;55.968;37.498;2023-08-17T00:03:51;100475.38;;;16.50;76.93
65546;BME280;52177;55.968;37.498;2023-08-17T00:04:22;100472.25;;;16.46;76.88
65546;BME280;52177;55.968;37.498;2023-08-17T00:04:52;100466.88;;;16.46;76.86
65546;BME280;52177;55.968;37.498;2023-08-17T00:05:22;100468.75;;;16.46;76.87
65546;BME280;52177;55.968;37.498;2023-08-17T00:05:53;100473.91;;;16.48;76.96
65546;BME280;52177;55.968;37.498;2023-08-17T00:06:23;100466.66;;;16.48;76.74
65546;BME280;52177;55.968;37.498;2023-08-17T00:06:54;100472.69;;;16.50;76.66
65546;BME280;52177;55.968;37.498;2023-08-17T00:07:24;100468.16;;;16.51;76.52
65546;BME280;52177;55.968;37.498;2023-08-17T00:07:55;100467.94;;;16.52;76.34
65546;BME280;52177;55.968;37.498;2023-08-17T00:08:25;100473.16;;;16.54;76.26
65546;BME280;52177;55.968;37.498;2023-08-17T00:08:55;100469.41;;;16.55;76.42
65546;BME280;52177;55.968;37.498;2023-08-17T00:09:26;100472.75;;;16.57;76.40
65546;BME280;52177;55.968;37.498;2023-08-17T00:09:56;100467.56;;;16.55;76.04
65546;BME280;52177;55.968;37.498;2023-08-17T00:10:27;100473.78;;;16.56;76.11
65546;BME280;52177;55.968;37.498;2023-08-17T00:10:57;100461.97;;;16.57;76.16
65546;BME280;52177;55.968;37.498;2023-08-17T00:11:27;100472.75;;;16.57;76.16
65546;BME280;52177;55.968;37.498;2023-08-17T00:11:58;100469.22;;;16.56;76.18
65546;BME280;52177;55.968;37.498;2023-08-17T00:12:29;100474.41;;;16.58;76.25
65546;BME280;52177;55.968;37.498;2023-08-17T00:12:59;100471.91;;;16.56;76.28
65546;BME280;52177;55.968;37.498;2023-08-17T00:13:30;100469.22;;;16.56;76.13
65546;BME280;52177;55.968;37.498;2023-08-17T00:14:00;100471.09;;;16.56;76.20
65546;BME280;52177;55.968;37.498;2023-08-17T00:14:31;100466.72;;;16.55;76.35
65546;BME280;52177;55.968;37.498;2023-08-17T00:15:01;100476.47;;;16.56;76.31
65546;BME280;52177;55.968;37.498;2023-08-17T00:15:32;100472.75;;;16.57;76.52
65546;BME280;52177;55.968;37.498;2023-08-17T00:16:02;100477.31;;;16.56;76.50
65546;BME280;52177;55.968;37.498;2023-08-17T00:16:33;100475.44;;;16.57;76.42
65546;BME280;52177;55.968;37.498;2023-08-17T00:17:03;100466.34;;;16.58;76.30
65546;BME280;52177;55.968;37.498;2023-08-17T00:17:34;100476.91;;;16.59;76.33
65546;BME280;52177;55.968;37.498;2023-08-17T00:18:04;100475.03;;;16.60;76.26
65546;BME280;52177;55.968;37.498;2023-08-17T00:18:35;100481.28;;;16.60;76.21
65546;BME280;52177;55.968;37.498;2023-08-17T00:19:05;100476.06;;;16.59;76.14
65546;BME280;52177;55.968;37.498;2023-08-17T00:19:35;100474.22;;;16.59;76.04
65546;BME280;52177;55.968;37.498;2023-08-17T00:20:06;100478.75;;;16.59;75.90
65546;BME280;52177;55.968;37.498;2023-08-17T00:20:37;100475.44;;;16.57;75.84
65546;BME280;52177;55.968;37.498;2023-08-17T00:21:07;100470.44;;;16.54;76.02
65546;BME280;52177;55.968;37.498;2023-08-17T00:21:38;100474.38;;;16.51;75.98
65546;BME280;52177;55.968;37.498;2023-08-17T00:22:08;100476.41;;;16.49;76.30
65546;BME280;52177;55.968;37.498;2023-08-17T00:22:39;100473.09;;;16.47;76.55
65546;BME280;52177;55.968;37.498;2023-08-17T00:23:10;100474.13;;;16.46;76.49
65546;BME280;52177;55.968;37.498;2023-08-17T00:23:40;100480.34;;;16.46;76.42
65546;BME280;52177;55.968;37.498;2023-08-17T00:24:11;100482.00;;;16.48;76.45
65546;BME280;52177;55.968;37.498;2023-08-17T00:24:42;100476.59;;;16.48;76.28
65546;BME280;52177;55.968;37.498;2023-08-17T00:25:15;100480.97;;;16.49;76.55
65546;BME280;52177;55.968;37.498;2023-08-17T00:25:45;100477.44;;;16.48;76.65
65546;BME280;52177;55.968;37.498;2023-08-17T00:26:17;100483.69;;;16.49;76.57
65546;BME280;52177;55.968;37.498;2023-08-17T00:26:48;100480.97;;;16.49;76.66
65546;BME280;52177;55.968;37.498;2023-08-17T00:27:18;100472.91;;;16.49;76.40
65546;BME280;52177;55.968;37.498;2023-08-17T00:27:48;100474.56;;;16.50;76.43
65546;BME280;52177;55.968;37.498;2023-08-17T00:28:19;100479.94;;;16.50;76.41
65546;BME280;52177;55.968;37.498;2023-08-17T00:28:49;100483.69;;;16.49;76.20
65546;BME280;52177;55.968;37.498;2023-08-17T00:29:20;100481.81;;;16.49;76.31
65546;BME280;52177;55.968;37.498;2023-08-17T00:29:50;100482.81;;;16.48;76.26
65546;BME280;52177;55.968;37.498;2023-08-17T00:30:20;100479.31;;;16.48;76.13
65546;BME280;52177;55.968;37.498;2023-08-17T00:30:51;100482.00;;;16.48;76.28
65546;BME280;52177;55.968;37.498;2023-08-17T00:31:21;100482.00;;;16.48;76.27
65546;BME280;52177;55.968;37.498;2023-08-17T00:31:52;100491.09;;;16.46;76.30
65546;BME280;52177;55.968;37.498;2023-08-17T00:32:22;100484.91;;;16.46;76.39
65546;BME280;52177;55.968;37.498;2023-08-17T00:32:53;100484.91;;;16.46;76.36
65546;BME280;52177;55.968;37.498;2023-08-17T00:33:23;100488.59;;;16.45;76.40
65546;BME280;52177;55.968;37.498;2023-08-17T00:33:53;100487.59;;;16.46;76.03
65546;BME280;52177;55.968;37.498;2023-08-17T00:34:24;100488.41;;;16.46;76.18
65546;BME280;52177;55.968;37.498;2023-08-17T00:34:54;100488.41;;;16.46;76.04
65546;BME280;52177;55.968;37.498;2023-08-17T00:35:24;100491.09;;;16.46;75.96
65546;BME280;52177;55.968;37.498;2023-08-17T00:35:55;100489.25;;;16.47;75.98
65546;BME280;52177;55.968;37.498;2023-08-17T00:36:25;100490.88;;;16.48;76.10
65546;BME280;52177;55.968;37.498;2023-08-17T00:36:56;100491.09;;;16.46;76.24
65546;BME280;52177;55.968;37.498;2023-08-17T00:37:26;100484.91;;;16.46;76.39
65546;BME280;52177;55.968;37.498;2023-08-17T00:37:56;100491.47;;;16.43;76.44
65546;BME280;52177;55.968;37.498;2023-08-17T00:38:27;100486.94;;;16.44;76.62
65546;BME280;52177;55.968;37.498;2023-08-17T00:38:57;100488.78;;;16.43;76.59
65546;BME280;52177;55.968;37.498;2023-08-17T00:39:27;100486.94;;;16.44;76.60
65546;BME280;52177;55.968;37.498;2023-08-17T00:39:58;100491.47;;;16.43;76.60
65546;BME280;52177;55.968;37.498;2023-08-17T00:40:28;100483.41;;;16.43;76.63
65546;BME280;52177;55.968;37.498;2023-08-17T00:40:59;100490.66;;;16.43;76.53
65546;BME280;52177;55.968;37.498;2023-08-17T00:41:29;100489.81;;;16.42;76.54
65546;BME280;52177;55.968;37.498;2023-08-17T00:42:00;100495.22;;;16.42;76.31
65546;BME280;52177;55.968;37.498;2023-08-17T00:42:31;100489.81;;;16.42;76.45
65546;BME280;52177;55.968;37.498;2023-08-17T00:43:01;100490.66;;;16.43;76.43
65546;BME280;52177;55.968;37.498;2023-08-17T00:43:32;100484.44;;;16.42;76.53
65546;BME280;52177;55.968;37.498;2023-08-17T00:44:02;100489.81;;;16.42;76.54
65546;BME280;52177;55.968;37.498;2023-08-17T00:44:33;100493.56;;;16.41;76.41
65546;BME280;52177;55.968;37.498;2023-08-17T00:45:04;100497.06;;;16.42;76.49
65546;BME280;52177;55.968;37.498;2023-08-17T00:45:35;100494.38;;;16.42;76.62
65546;BME280;52177;55.968;37.498;2023-08-17T00:46:05;100495.41;;;16.41;76.62
65546;BME280;52177;55.968;37.498;2023-08-17T00:46:36;100489.19;;;16.40;76.64
65546;BME280;52177;55.968;37.498;2023-08-17T00:47:06;100491.88;;;16.40;76.64
65546;BME280;52177;55.968;37.498;2023-08-17T00:47:37;100494.78;;;16.39;76.48
65546;BME280;52177;55.968;37.498;2023-08-17T00:48:08;100492.09;;;16.39;76.50
65546;BME280;52177;55.968;37.498;2023-08-17T00:48:39;100485.03;;;16.38;76.41
65546;BME280;52177;55.968;37.498;2023-08-17T00:49:10;100487.91;;;16.36;76.20
65546;BME280;52177;55.968;37.498;2023-08-17T00:49:41;100484.38;;;16.36;76.21
65546;BME280;52177;55.968;37.498;2023-08-17T00:50:12;100492.47;;;16.36;76.32
65546;BME280;52177;55.968;37.498;2023-08-17T00:50:43;100490.81;;;16.35;76.06
65546;BME280;52177;55.968;37.498;2023-08-17T00:51:15;100489.34;;;16.32;76.07
65546;BME280;52177;55.968;37.498;2023-08-17T00:51:45;100493.03;;;16.31;76.12
65546;BME280;52177;55.968;37.498;2023-08-17T00:52:16;100500.47;;;16.29;76.26
65546;BME280;52177;55.968;37.498;2023-08-17T00:52:47;100497.13;;;16.27;76.36
65546;BME280;52177;55.968;37.498;2023-08-17T00:53:18;100494.66;;;16.25;76.30
65546;BME280;52177;55.968;37.498;2023-08-17T00:53:50;100502.09;;;16.23;76.53
65546;BME280;52177;55.968;37.498;2023-08-17T00:54:24;100496.72;;;16.23;76.43
65546;BME280;52177;55.968;37.498;2023-08-17T00:54:56;100499.41;;;16.23;76.43
65546;BME280;52177;55.968;37.498;2023-08-17T00:55:27;100495.88;;;16.23;76.34
65546;BME280;52177;55.968;37.498;2023-08-17T00:55:59;100495.88;;;16.23;76.40
65546;BME280;52177;55.968;37.498;2023-08-17T00:56:30;100496.72;;;16.23;76.50
65546;BME280;52177;55.968;37.498;2023-08-17T00:57:01;100498.59;;;16.23;76.52
65546;BME280;52177;55.968;37.498;2023-08-17T00:57:32;100499.22;;;16.25;76.59
65546;BME280;52177;55.968;37.498;2023-08-17T00:58:03;100495.69;;;16.24;76.19
65546;BME280;52177;55.968;37.498;2023-08-17T00:58:34;100500.03;;;16.25;76.10
65546;BME280;52177;55.968;37.498;2023-08-17T00:59:04;100494.84;;;16.24;76.33
65546;BME280;52177;55.968;37.498;2023-08-17T00:59:36;100494.03;;;16.23;76.32
65546;BME280;52177;55.968;37.498;2023-08-17T01:00:07;100496.91;;;16.22;76.44
65546;BME280;52177;55.968;37.498;2023-08-17T01:00:38;100497.75;;;16.22;76.69
65546;BME280;52177;55.968;37.498;2023-08-17T01:01:09;100493.38;;;16.21;76.72
65546;BME280;52177;55.968;37.498;2023-08-17T01:01:39;100499.59;;;16.22;76.74
65546;BME280;52177;55.968;37.498;2023-08-17T01:02:09;100491.50;;;16.22;76.85
65546;BME280;52177;55.968;37.498;2023-08-17T01:02:41;100492.16;;;16.24;76.79
65546;BME280;52177;55.968;37.498;2023-08-17T01:03:12;100496.72;;;16.23;76.72
65546;BME280;52177;55.968;37.498;2023-08-17T01:03:42;100493.84;;;16.25;76.57
65546;BME280;52177;55.968;37.498;2023-08-17T01:04:13;100498.38;;;16.24;76.68
65546;BME280;52177;55.968;37.498;2023-08-17T01:04:43;100496.53;;;16.25;76.36
65546;BME280;52177;55.968;37.498;2023-08-17T01:05:14;100494.66;;;16.25;76.31
65546;BME280;52177;55.968;37.498;2023-08-17T01:05:44;100494.66;;;16.25;76.20
65546;BME280;52177;55.968;37.498;2023-08-17T01:06:15;100500.03;;;16.25;76.24
65546;BME280;52177;55.968;37.498;2023-08-17T01:06:45;100496.72;;;16.23;76.30
65546;BME280;52177;55.968;37.498;2023-08-17T01:07:15;100497.94;;;16.21;76.19
65546;BME280;52177;55.968;37.498;2023-08-17T01:07:46;100496.47;;;16.18;76.47
65546;BME280;52177;55.968;37.498;2023-08-17T01:08:16;100500.38;;;16.16;76.63
65546;BME280;52177;55.968;37.498;2023-08-17T01:08:47;100500.75;;;16.13;77.01
65546;BME280;52177;55.968;37.498;2023-08-17T01:09:17;100498.06;;;16.13;77.11
65546;BME280;52177;55.968;37.498;2023-08-17T01:09:48;100501.78;;;16.12;77.05
65546;BME280;52177;55.968;37.498;2023-08-17T01:10:18;100495.59;;;16.11;77.22
65546;BME280;52177;55.968;37.498;2023-08-17T01:10:59;100492.03;;;16.11;77.50
65546;BME280;52177;55.968;37.498;2023-08-17T01:11:37;100492.03;;;16.11;77.28
65546;BME280;52177;55.968;37.498;2023-08-17T01:13:12;100499.28;;;16.10;77.11
65546;BME280;52177;55.968;37.498;2023-08-17T01:14:14;100494.28;;;16.07;77.27
65546;BME280;52177;55.968;37.498;2023-08-17T01:15:40;100495.50;;;16.04;77.60
65546;BME280;52177;55.968;37.498;2023-08-17T01:16:16;100500.06;;;16.04;77.42
65546;BME280;52177;55.968;37.498;2023-08-17T01:17:00;100497.38;;;16.04;77.38
65546;BME280;52177;55.968;37.498;2023-08-17T01:17:42;100503.75;;;16.03;77.23
65546;BME280;52177;55.968;37.498;2023-08-17T01:18:22;100501.91;;;16.03;77.18
65546;BME280;52177;55.968;37.498;2023-08-17T01:18:54;100501.91;;;16.03;77.21
65546;BME280;52177;55.968;37.498;2023-08-17T01:19:28;100495.50;;;16.04;76.99
65546;BME280;52177;55.968;37.498;2023-08-17T01:20:00;100497.38;;;16.04;77.10
65546;BME280;52177;55.968;37.498;2023-08-17T01:20:34;100494.69;;;16.04;76.95
65546;BME280;52177;55.968;37.498;2023-08-17T01:21:06;100498.22;;;16.04;nan
65546;BME280;52177;55.968;37.498;2023-08-17T01:21:41;100493.66;;;16.05;76.58
65546;BME280;52177;55.968;37.498;2023-08-17T01:22:17;100498.03;;;16.06;76.62
65546;BME280;52177;55.968;37.498;2023-08-17T01:22:51;100495.50;;;16.04;76.80
65546;BME280;52177;55.968;37.498;2023-08-17T01:23:22;100500.50;;;16.08;76.65
65546;BME280;52177;55.968;37.498;2023-08-17T01:23:57;100497.16;;;16.06;nan
65546;BME280;52177;55.968;37.498;2023-08-17T01:24:28;100507.75;;;16.07;76.69
65546;BME280;52177;55.968;37.498;2023-08-17T01:24:59;100500.72;;;16.06;76.89
65546;BME280;52177;55.968;37.498;2023-08-17T01:25:29;100497.16;;;16.06;76.72
65546;BME280;52177;55.968;37.498;2023-08-17T01:26:00;100504.22;;;16.07;76.67
65546;BME280;52177;55.968;37.498;2023-08-17T01:26:30;100506.91;;;16.07;76.77
65546;BME280;52177;55.968;37.498;2023-08-17T01:27:01;100503.59;;;16.04;76.59
65546;BME280;52177;55.968;37.498;2023-08-17T01:27:39;100493.47;;;16.07;76.67
65546;BME280;52177;55.968;37.498;2023-08-17T01:28:09;100504.41;;;16.05;76.85
65546;BME280;52177;55.968;37.498;2023-08-17T01:28:40;100495.50;;;16.04;76.74
65546;BME280;52177;55.968;37.498;2023-08-17T01:29:10;100497.56;;;16.02;76.61
65546;BME280;52177;55.968;37.498;2023-08-17T01:29:41;100506.66;;;16.01;76.64
65546;BME280;52177;55.968;37.498;2023-08-17T01:30:16;100503.34;;;15.99;76.85
65546;BME280;52177;55.968;37.498;2023-08-17T01:31:05;100502.28;;;16.00;77.04
65546;BME280;52177;55.968;37.498;2023-08-17T01:31:50;100503.50;;;15.98;77.11
65546;BME280;52177;55.968;37.498;2023-08-17T01:33:33;100503.91;;;15.95;77.19
65546;BME280;52177;55.968;37.498;2023-08-17T01:34:08;100504.72;;;15.95;77.18
65546;BME280;52177;55.968;37.498;2023-08-17T01:34:44;100503.69;;;15.96;76.95
65546;BME280;52177;55.968;37.498;2023-08-17T01:35:28;100501.00;;;15.96;76.89
65546;BME280;52177;55.968;37.498;2023-08-17T01:36:05;100511.75;;;15.96;76.87
65546;BME280;52177;55.968;37.498;2023-08-17T01:36:44;100502.88;;;15.96;77.09
65546;BME280;52177;55.968;37.498;2023-08-17T01:37:19;100499.34;;;15.95;76.77
65546;BME280;52177;55.968;37.498;2023-08-17T01:37:52;100500.19;;;15.96;76.81
65546;BME280;52177;55.968;37.498;2023-08-17T01:38:23;100501.00;;;15.96;76.69
65546;BME280;52177;55.968;37.498;2023-08-17T01:38:56;100499.34;;;15.95;76.59
65546;BME280;52177;55.968;37.498;2023-08-17T01:39:32;100502.88;;;15.96;76.62
65546;BME280;52177;55.968;37.498;2023-08-17T01:40:06;100502.22;;;15.94;76.67
65546;BME280;52177;55.968;37.498;2023-08-17T01:40:37;100504.28;;;15.92;76.75
65546;BME280;52177;55.968;37.498;2023-08-17T01:41:09;100497.63;;;15.88;76.72
65546;BME280;52177;55.968;37.498;2023-08-17T01:41:46;100507.09;;;15.83;76.95
65546;BME280;52177;55.968;37.498;2023-08-17T01:42:18;100502.13;;;15.80;77.08
65546;BME280;52177;55.968;37.498;2023-08-17T01:42:50;100498.13;;;15.76;77.28
65546;BME280;52177;55.968;37.498;2023-08-17T01:43:21;100498.31;;;15.75;77.69
65546;BME280;52177;55.968;37.498;2023-08-17T01:43:52;100501.22;;;15.73;77.65
65546;BME280;52177;55.968;37.498;2023-08-17T01:44:24;100502.22;;;15.72;77.73
65546;BME280;52177;55.968;37.498;2023-08-17T01:44:56;100501.41;;;15.72;77.87
65546;BME280;52177;55.968;37.498;2023-08-17T01:45:26;100495.34;;;15.70;77.78
65546;BME280;52177;55.968;37.498;2023-08-17T01:45:57;100496.19;;;15.70;77.83
65546;BME280;52177;55.968;37.498;2023-08-17T01:46:32;100498.03;;;15.70;77.91
65546;BME280;52177;55.968;37.498;2023-08-17T01:47:03;100498.03;;;15.70;77.76
65546;BME280;52177;55.968;37.498;2023-08-17T01:47:35;100497.03;;;15.71;77.78
65546;BME280;52177;55.968;37.498;2023-08-17T01:48:05;100495.19;;;15.71;77.89
65546;BME280;52177;55.968;37.498;2023-08-17T01:48:36;100491.66;;;15.71;77.87
65546;BME280;52177;55.968;37.498;2023-08-17T01:49:06;100496.84;;;15.72;77.87
65546;BME280;52177;55.968;37.498;2023-08-17T01:49:37;100496.84;;;15.72;77.72
65546;BME280;52177;55.968;37.498;2023-08-17T01:50:07;100494.34;;;15.71;77.77
65546;BME280;52177;55.968;37.498;2023-08-17T01:50:38;100498.03;;;15.70;77.86
65546;BME280;52177;55.968;37.498;2023-08-17T01:51:10;100497.19;;;15.69;77.86
65546;BME280;52177;55.968;37.498;2023-08-17T01:51:41;100495.50;;;15.68;77.77
65546;BME280;52177;55.968;37.498;2023-08-17T01:52:11;100500.91;;;15.68;77.93
65546;BME280;52177;55.968;37.498;2023-08-17T01:52:41;100493.69;;;15.69;78.00
65546;BME280;52177;55.968;37.498;2023-08-17T01:53:12;100498.22;;;15.68;77.87
65546;BME280;52177;55.968;37.498;2023-08-17T01:53:42;100499.88;;;15.69;77.78
65546;BME280;52177;55.968;37.498;2023-08-17T01:54:13;100496.38;;;15.69;77.73
65546;BME280;52177;55.968;37.498;2023-08-17T01:54:43;100496.19;;;15.70;77.64
65546;BME280;52177;55.968;37.498;2023-08-17T01:55:14;100497.66;;;15.73;77.74
65546;BME280;52177;55.968;37.498;2023-08-17T01:55:44;100497.66;;;15.73;77.44
65546;BME280;52177;55.968;37.498;2023-08-17T01:56:14;100502.88;;;15.74;77.34
65546;BME280;52177;55.968;37.498;2023-08-17T01:56:45;100502.88;;;15.74;77.43
65546;BME280;52177;55.968;37.498;2023-08-17T01:57:15;100498.31;;;15.75;77.36
65546;BME280;52177;55.968;37.498;2023-08-17T01:57:46;100500.81;;;15.76;77.24
65546;BME280;52177;55.968;37.498;2023-08-17T01:58:16;100501.66;;;15.77;77.17
65546;BME280;52177;55.968;37.498;2023-08-17T01:58:46;100502.47;;;15.77;77.16
65546;BME280;52177;55.968;37.498;2023-08-17T01:59:17;100500.63;;;15.78;77.11
65546;BME280;52177;55.968;37.498;2023-08-17T01:59:47;100497.09;;;15.77;76.96
65546;BME280;52177;55.968;37.498;2023-08-17T02:00:18;100501.66;;;15.77;77.16
65546;BME280;52177;55.968;37.498;2023-08-17T02:00:48;100502.69;;;15.76;77.16
65546;BME280;52177;55.968;37.498;2023-08-17T02:01:18;100502.69;;;15.76;77.06
65546;BME280;52177;55.968;37.498;2023-08-17T02:01:49;100502.03;;;15.74;77.19
65546;BME280;52177;55.968;37.498;2023-08-17T02:02:19;100502.88;;;15.74;77.23
65546;BME280;52177;55.968;37.498;2023-08-17T02:02:51;100497.50;;;15.74;77.21
65546;BME280;52177;55.968;37.498;2023-08-17T02:03:22;100504.72;;;15.74;77.32
65546;BME280;52177;55.968;37.498;2023-08-17T02:03:52;100504.72;;;15.74;77.39
65546;BME280;52177;55.968;37.498;2023-08-17T02:04:24;100507.41;;;15.74;77.44
65546;BME280;52177;55.968;37.498;2023-08-17T02:04:54;100505.72;;;15.73;77.48
65546;BME280;52177;55.968;37.498;2023-08-17T02:05:25;100503.91;;;15.73;77.41
65546;BME280;52177;55.968;37.498;2023-08-17T02:06:01;100506.59;;;15.73;77.39
65546;BME280;52177;55.968;37.498;2023-08-17T02:06:31;100510.09;;;15.74;77.33
65546;BME280;52177;55.968;37.498;2023-08-17T02:07:02;100505.56;;;15.74;77.34
65546;BME280;52177;55.968;37.498;2023-08-17T02:07:32;100508.41;;;15.73;77.22
65546;BME280;52177;55.968;37.498;2023-08-17T02:08:03;100508.25;;;15.74;77.43
65546;BME280;52177;55.968;37.498;2023-08-17T02:08:33;100503.03;;;15.73;77.29
65546;BME280;52177;55.968;37.498;2023-08-17T02:09:05;100505.94;;;15.71;77.03
65546;BME280;52177;55.968;37.498;2023-08-17T02:09:36;100500.06;;;15.68;77.42
65546;BME280;52177;55.968;37.498;2023-08-17T02:10:06;100506.47;;;15.67;77.51
65546;BME280;52177;55.968;37.498;2023-08-17T02:10:37;100505.00;;;15.64;77.59
65546;BME280;52177;55.968;37.498;2023-08-17T02:11:07;100505.38;;;15.61;77.93
65546;BME280;52177;55.968;37.498;2023-08-17T02:11:39;100505.56;;;15.59;78.04
65546;BME280;52177;55.968;37.498;2023-08-17T02:12:10;100508.25;;;15.59;77.99
65546;BME280;52177;55.968;37.498;2023-08-17T02:12:40;100504.72;;;15.59;78.06
65546;BME280;52177;55.968;37.498;2023-08-17T02:13:10;100508.25;;;15.59;78.05
65546;BME280;52177;55.968;37.498;2023-08-17T02:13:41;100501.03;;;15.60;78.19
65546;BME280;52177;55.968;37.498;2023-08-17T02:14:11;100498.13;;;15.61;78.14
65546;BME280;52177;55.968;37.498;2023-08-17T02:14:42;100505.19;;;15.62;78.18
65546;BME280;52177;55.968;37.498;2023-08-17T02:15:12;100501.47;;;15.63;78.09
65546;BME280;52177;55.968;37.498;2023-08-17T02:15:42;100500.47;;;15.65;78.03
65546;BME280;52177;55.968;37.498;2023-08-17T02:16:13;100495.91;;;15.65;77.99
65546;BME280;52177;55.968;37.498;2023-08-17T02:16:43;100497.56;;;15.66;77.96
65546;BME280;52177;55.968;37.498;2023-08-17T02:17:14;100501.09;;;15.67;78.18
65546;BME280;52177;55.968;37.498;2023-08-17T02:17:46;100501.09;;;15.67;77.92
65546;BME280;52177;55.968;37.498;2023-08-17T02:18:17;100499.25;;;15.67;78.01
65546;BME280;52177;55.968;37.498;2023-08-17T02:18:47;100501.94;;;15.67;77.90
65546;BME280;52177;55.968;37.498;2023-08-17T02:19:17;100494.69;;;15.68;77.93
65546;BME280;52177;55.968;37.498;2023-08-17T02:19:48;100503.59;;;15.68;77.83
65546;BME280;52177;55.968;37.498;2023-08-17T02:20:19;100500.06;;;15.68;77.88
65546;BME280;52177;55.968;37.498;2023-08-17T02:20:49;100498.22;;;15.68;77.70
65546;BME280;52177;55.968;37.498;2023-08-17T02:21:19;100496.38;;;15.69;77.69
65546;BME280;52177;55.968;37.498;2023-08-17T02:21:50;100501.75;;;15.69;77.63
65546;BME280;52177;55.968;37.498;2023-08-17T02:22:20;100500.06;;;15.68;77.64
65546;BME280;52177;55.968;37.498;2023-08-17T02:22:51;100503.78;;;15.67;77.67
65546;BME280;52177;55.968;37.498;2023-08-17T02:23:21;100505.00;;;15.64;77.63
65546;BME280;52177;55.968;37.498;2023-08-17T02:23:51;100504.38;;;15.62;77.89
65546;BME280;52177;55.968;37.498;2023-08-17T02:24:22;100505.56;;;15.59;77.97
65546;BME280;52177;55.968;37.498;2023-08-17T02:24:52;100508.44;;;15.58;78.10
65546;BME280;52177;55.968;37.498;2023-08-17T02:25:22;100496.88;;;15.57;78.15
65546;BME280;52177;55.968;37.498;2023-08-17T02:25:53;100503.25;;;15.56;78.36
65546;BME280;52177;55.968;37.498;2023-08-17T02:26:23;100506.78;;;15.57;78.59
65546;BME280;52177;55.968;37.498;2023-08-17T02:26:54;100509.28;;;15.58;78.55
65546;BME280;52177;55.968;37.498;2023-08-17T02:27:24;100507.63;;;15.57;78.46
65546;BME280;52177;55.968;37.498;2023-08-17T02:27:54;100510.94;;;15.59;78.63
65546;BME280;52177;55.968;37.498;2023-08-17T02:28:25;100508.88;;;15.61;78.42
65546;BME280;52177;55.968;37.498;2023-08-17T02:28:55;100509.72;;;15.62;78.22
65546;BME280;52177;55.968;37.498;2023-08-17T02:29:26;100513.91;;;15.65;78.16
65546;BME280;52177;55.968;37.498;2023-08-17T02:29:56;100512.84;;;15.66;78.01
65546;BME280;52177;55.968;37.498;2023-08-17T02:30:26;100512.84;;;15.66;77.94
65546;BME280;52177;55.968;37.498;2023-08-17T02:30:58;100512.84;;;15.66;78.04
65546;BME280;52177;55.968;37.498;2023-08-17T02:31:29;100514.72;;;15.65;78.03
65546;BME280;52177;55.968;37.498;2023-08-17T02:31:59;100512.84;;;15.66;78.06
65546;BME280;52177;55.968;37.498;2023-08-17T02:32:29;100516.38;;;15.66;78.15
65546;BME280;52177;55.968;37.498;2023-08-17T02:33:00;100512.84;;;15.66;78.26
65546;BME280;52177;55.968;37.498;2023-08-17T02:33:30;100510.16;;;15.66;78.26
65546;BME280;52177;55.968;37.498;2023-08-17T02:34:01;100511.84;;;15.67;78.14
65546;BME280;52177;55.968;37.498;2023-08-17T02:34:35;100511.84;;;15.67;78.25
65546;BME280;52177;55.968;37.498;2023-08-17T02:35:06;100517.22;;;15.67;78.47
65546;BME280;52177;55.968;37.498;2023-08-17T02:35:37;100510.81;;;15.68;78.35
65546;BME280;52177;55.968;37.498;2023-08-17T02:36:07;100509.81;;;15.69;78.32
65546;BME280;52177;55.968;37.498;2023-08-17T02:36:38;100513.16;;;15.71;78.34
65546;BME280;52177;55.968;37.498;2023-08-17T02:37:08;100518.34;;;15.72;78.07
65546;BME280;52177;55.968;37.498;2023-08-17T02:37:38;100514.66;;;15.73;78.06
65546;BME280;52177;55.968;37.498;2023-08-17T02:38:09;100517.97;;;15.75;78.04
65546;BME280;52177;55.968;37.498;2023-08-17T02:38:39;100510.75;;;15.76;77.88
65546;BME280;52177;55.968;37.498;2023-08-17T02:39:10;100509.72;;;15.77;77.92
65546;BME280;52177;55.968;37.498;2023-08-17T02:39:40;100519.25;;;15.79;78.00
65546;BME280;52177;55.968;37.498;2023-08-17T02:40:11;100508.50;;;15.79;77.85
65546;BME280;52177;55.968;37.498;2023-08-17T02:40:41;100515.34;;;15.82;77.83
65546;BME280;52177;55.968;37.498;2023-08-17T02:41:12;100518.84;;;15.82;77.86
65546;BME280;52177;55.968;37.498;2023-08-17T02:41:42;100516.16;;;15.82;77.67
65546;BME280;52177;55.968;37.498;2023-08-17T02:42:15;100520.72;;;15.82;77.59
65546;BME280;52177;55.968;37.498;2023-08-17T02:42:45;100522.59;;;15.81;77.87
65546;BME280;52177;55.968;37.498;2023-08-17T02:43:16;100515.34;;;15.82;77.87
65546;BME280;52177;55.968;37.498;2023-08-17T02:43:46;100523.22;;;15.83;77.71
65546;BME280;52177;55.968;37.498;2023-08-17T02:44:16;100519.50;;;15.85;77.74
65546;BME280;52177;55.968;37.498;2023-08-17T02:44:47;100522.84;;;15.87;77.78
65546;BME280;52177;55.968;37.498;2023-08-17T02:45:17;100514.97;;;15.85;77.81